Time;durP1;ratioP1;P1;durP2;ratioP2;P2;SDS_P1;SDS_P2;PMS_P1;PMS_P2;Temp;Humidity;BMP_temperature;BMP_pressure;BME280_temperature;BME280_humidity;BME280_pressure;Samples;Min_cycle;Max_cycle;Signal;HPM_P1;HPM_P2
2022/04/26 03:37:11;;;;;;;9.40;5.10;;;7.80;99.90;;;;;;5130190;27;20108;-73
2022/04/26 03:39:37;;;;;;;6.70;4.83;;;7.80;99.90;;;;;;5113332;27;20472;-72
2022/04/26 03:42:03;;;;;;;8.67;4.67;;;7.80;99.90;;;;;;5118339;27;20031;-72
2022/04/26 03:44:29;;;;;;;7.03;4.60;;;8.00;99.90;;;;;;5131765;27;20051;-72
2022/04/26 03:46:55;;;;;;;8.30;4.53;;;7.80;99.90;;;;;;5124085;27;20077;-72
2022/04/26 03:49:24;;;;;;;10.50;4.90;;;7.80;99.90;;;;;;5111540;28;20032;-72
2022/04/26 03:51:52;;;;;;;9.23;4.93;;;7.80;99.90;;;;;;5118186;27;20043;-72
2022/04/26 03:54:21;;;;;;;9.67;4.50;;;7.90;99.90;;;;;;5117625;27;20030;-72
2022/04/26 03:56:47;;;;;;;5.60;4.53;;;7.90;99.90;;;;;;5131821;27;20059;-72
2022/04/26 03:59:13;;;;;;;9.57;4.37;;;7.90;99.90;;;;;;5113238;27;20551;-72
2022/04/26 04:01:39;;;;;;;8.87;4.87;;;8.00;99.90;;;;;;5121378;27;20041;-72
2022/04/26 04:04:05;;;;;;;7.37;4.97;;;;;;;;;;5127694;27;20031;-72
2022/04/26 04:06:31;;;;;;;9.87;5.37;;;;;;;;;;5111402;28;20031;-73
2022/04/26 04:08:57;;;;;;;11.30;5.70;;;7.70;99.90;;;;;;5113124;27;20118;-72
2022/04/26 04:11:22;;;;;;;5.33;4.27;;;8.00;99.90;;;;;;5131751;27;20383;-70
2022/04/26 04:13:48;;;;;;;10.33;5.03;;;7.90;99.90;;;;;;5112406;27;20031;-70
2022/04/26 04:16:14;;;;;;;8.80;5.87;;;;;;;;;;5114074;27;20042;-72
2022/04/26 04:21:24;;;;;;;6.75;5.28;;;;;;;;;;5117933;28;20186;-73
2022/04/26 04:23:49;;;;;;;9.67;5.47;;;8.00;99.90;;;;;;5130405;27;20545;-73
2022/04/26 04:26:15;;;;;;;11.13;5.93;;;;;;;;;;5129434;27;20077;-72
2022/04/26 04:28:41;;;;;;;9.67;6.10;;;7.90;99.90;;;;;;5122866;27;20110;-72
2022/04/26 04:31:08;;;;;;;6.17;5.37;;;8.20;99.90;;;;;;5132275;27;20088;-71
2022/04/26 04:33:34;;;;;;;6.40;5.23;;;;;;;;;;5120584;27;20027;-72
2022/04/26 04:36:00;;;;;;;9.07;5.87;;;7.90;99.90;;;;;;5128388;27;20035;-72
2022/04/26 04:38:26;;;;;;;8.27;5.97;;;8.00;99.90;;;;;;5120367;27;20130;-70
2022/04/26 04:40:53;;;;;;;7.13;5.70;;;7.90;99.90;;;;;;5108838;28;20027;-72
2022/04/26 04:43:19;;;;;;;10.60;5.47;;;8.20;99.90;;;;;;5114277;27;20115;-73
2022/04/26 04:45:44;;;;;;;9.27;5.87;;;7.60;99.90;;;;;;5120341;27;20058;-72
2022/04/26 04:48:10;;;;;;;7.73;6.90;;;;;;;;;;5130971;27;20471;-72
2022/04/26 04:50:36;;;;;;;9.03;6.33;;;8.10;99.90;;;;;;5118171;28;20026;-72
2022/04/26 04:53:02;;;;;;;9.53;6.50;;;8.10;99.90;;;;;;5118354;27;20039;-73
2022/04/26 04:55:27;;;;;;;7.27;5.50;;;8.00;99.90;;;;;;5109961;28;20028;-72
2022/04/26 04:57:53;;;;;;;9.67;7.13;;;;;;;;;;5115779;28;20047;-72
2022/04/26 05:00:19;;;;;;;9.63;7.50;;;;;;;;;;5130935;28;20031;-72
2022/04/26 05:02:45;;;;;;;11.90;6.73;;;;;;;;;;5127095;28;20035;-72
2022/04/26 05:05:12;;;;;;;9.27;7.33;;;;;;;;;;5129597;28;20072;-72
2022/04/26 05:07:38;;;;;;;11.23;7.67;;;;;;;;;;5124922;28;20081;-72
2022/04/26 05:10:05;;;;;;;10.37;7.40;;;8.40;99.90;;;;;;5124868;28;20028;-72
2022/04/26 05:12:31;;;;;;;10.60;7.17;;;8.20;99.90;;;;;;5127838;28;20036;-72
2022/04/26 05:14:56;;;;;;;8.47;7.57;;;8.30;99.90;;;;;;5130381;28;20038;-72
2022/04/26 05:17:22;;;;;;;12.00;7.27;;;;;;;;;;5128765;28;20035;-72
2022/04/26 05:19:48;;;;;;;11.00;8.37;;;;;;;;;;5116281;28;20031;-72
2022/04/26 05:22:14;;;;;;;14.67;9.80;;;;;;;;;;5122572;28;20024;-73
2022/04/26 05:24:59;;;;;;;12.67;9.03;;;8.40;99.90;;;;;;5121096;27;20042;-73
2022/04/26 05:27:26;;;;;;;11.98;8.85;;;8.30;99.90;;;;;;5125128;27;20024;-72
2022/04/26 05:29:53;;;;;;;12.73;9.70;;;8.30;99.90;;;;;;5109886;28;20032;-72
2022/04/26 05:32:27;;;;;;;15.47;10.17;;;8.40;99.90;;;;;;5111040;28;20027;-72
2022/04/26 05:35:01;;;;;;;15.17;9.40;;;8.40;99.90;;;;;;5116090;28;20034;-72
2022/04/26 05:37:29;;;;;;;11.65;10.10;;;8.50;99.90;;;;;;5127217;28;20038;-72
2022/04/26 05:39:55;;;;;;;13.43;8.57;;;8.40;99.90;;;;;;5116852;27;20028;-72
2022/04/26 05:42:22;;;;;;;15.20;10.93;;;;;;;;;;5113271;28;20028;-73
2022/04/26 05:44:47;;;;;;;16.77;10.63;;;;;;;;;;5108599;28;20439;-72
2022/04/26 05:47:13;;;;;;;15.03;9.70;;;;;;;;;;5109579;28;20027;-73
2022/04/26 05:49:39;;;;;;;13.20;9.53;;;8.60;99.90;;;;;;5130454;28;20038;-72
2022/04/26 05:52:05;;;;;;;13.70;10.03;;;8.60;99.90;;;;;;5119147;28;20476;-73
2022/04/26 05:54:32;;;;;;;13.13;9.40;;;8.80;99.90;;;;;;5130520;27;20023;-73
2022/04/26 05:56:58;;;;;;;14.83;9.87;;;;;;;;;;5129704;27;20104;-70
2022/04/26 05:59:24;;;;;;;15.20;10.80;;;8.80;99.90;;;;;;5122990;28;20035;-72
2022/04/26 06:01:51;;;;;;;14.80;9.73;;;8.80;99.90;;;;;;5130403;27;20020;-75
2022/04/26 06:04:17;;;;;;;14.83;10.07;;;9.00;99.90;;;;;;5112312;28;20500;-73
2022/04/26 06:06:42;;;;;;;15.07;10.00;;;9.10;99.90;;;;;;5113390;28;20030;-73
2022/04/26 06:09:08;;;;;;;10.47;9.17;;;8.90;99.90;;;;;;5114177;27;20080;-73
2022/04/26 06:11:34;;;;;;;15.47;9.73;;;;;;;;;;5125026;27;20023;-73
2022/04/26 06:14:01;;;;;;;13.30;10.37;;;9.00;99.90;;;;;;5114009;27;20027;-73
2022/04/26 06:16:27;;;;;;;16.53;10.50;;;9.10;99.90;;;;;;5113385;28;20062;-70
2022/04/26 06:18:52;;;;;;;14.13;10.63;;;9.10;99.90;;;;;;5127644;27;20388;-73
2022/04/26 06:21:18;;;;;;;14.83;9.87;;;9.20;99.90;;;;;;5126462;27;20126;-73
2022/04/26 06:23:43;;;;;;;19.27;10.67;;;9.30;99.90;;;;;;5119751;27;20072;-73
2022/04/26 06:26:09;;;;;;;14.47;10.57;;;9.60;99.90;;;;;;5112802;27;20019;-72
2022/04/26 06:28:35;;;;;;;17.10;9.67;;;;;;;;;;5121288;27;20023;-71
2022/04/26 06:31:00;;;;;;;12.70;8.83;;;9.80;99.90;;;;;;5114697;27;20031;-70
2022/04/26 06:33:26;;;;;;;11.17;9.03;;;9.80;99.90;;;;;;5120092;27;20027;-71
2022/04/26 06:35:52;;;;;;;14.03;8.90;;;;;;;;;;5131174;27;20023;-71
2022/04/26 06:38:18;;;;;;;9.90;8.30;;;;;;;;;;5127033;27;20480;-70
2022/04/26 06:40:46;;;;;;;14.93;8.93;;;9.90;99.90;;;;;;5119705;27;20418;-71
2022/04/26 06:43:12;;;;;;;16.30;8.30;;;10.00;99.90;;;;;;5119593;27;20079;-71
2022/04/26 06:45:37;;;;;;;11.93;7.07;;;9.90;99.90;;;;;;5127097;27;20376;-71
2022/04/26 06:48:10;;;;;;;13.00;7.60;;;10.10;99.90;;;;;;5131200;27;20078;-72
2022/04/26 06:50:36;;;;;;;10.20;8.63;;;10.20;99.90;;;;;;5131144;27;20077;-72
2022/04/26 06:53:02;;;;;;;14.33;8.73;;;10.30;99.90;;;;;;5122221;27;20103;-72
2022/04/26 06:55:28;;;;;;;10.87;8.20;;;10.20;99.90;;;;;;5114523;27;20019;-72
2022/04/26 06:57:53;;;;;;;11.67;7.47;;;10.20;99.90;;;;;;5114956;27;20043;-71
2022/04/26 07:00:19;;;;;;;10.53;7.60;;;9.90;99.90;;;;;;5123423;27;20023;-71
2022/04/26 07:02:45;;;;;;;13.00;9.33;;;9.80;99.90;;;;;;5135144;27;20038;-72
2022/04/26 07:05:11;;;;;;;11.33;7.33;;;;;;;;;;5124887;27;20069;-72
2022/04/26 07:07:38;;;;;;;13.03;7.87;;;;;;;;;;5113678;27;20050;-71
2022/04/26 07:10:04;;;;;;;18.67;8.47;;;9.80;99.90;;;;;;5120539;27;20031;-72
2022/04/26 07:12:30;;;;;;;11.17;8.17;;;9.70;99.90;;;;;;5125623;27;20068;-72
2022/04/26 07:14:56;;;;;;;10.30;7.30;;;;;;;;;;5130926;27;20414;-72
2022/04/26 07:17:22;;;;;;;12.13;8.03;;;;;;;;;;5130544;27;20027;-73
2022/04/26 07:19:48;;;;;;;14.77;8.83;;;9.90;99.90;;;;;;5131629;27;20076;-72
2022/04/26 07:22:14;;;;;;;15.23;8.47;;;9.90;99.90;;;;;;5122442;27;20098;-73
2022/04/26 07:24:40;;;;;;;12.53;8.77;;;9.70;99.90;;;;;;5120121;27;20415;-73
2022/04/26 07:27:05;;;;;;;14.70;7.33;;;9.60;99.90;;;;;;5122811;27;20033;-70
2022/04/26 07:29:31;;;;;;;11.03;8.83;;;;;;;;;;5102587;28;20044;-70
2022/04/26 07:31:57;;;;;;;15.50;8.70;;;10.00;99.90;;;;;;5111697;28;20071;-74
2022/04/26 07:34:23;;;;;;;15.47;8.87;;;9.70;99.90;;;;;;5117698;27;20031;-73
2022/04/26 07:36:51;;;;;;;14.93;8.40;;;9.20;99.90;;;;;;5127394;27;20093;-73
2022/04/26 07:39:19;;;;;;;13.87;9.07;;;9.50;99.90;;;;;;5131008;27;20027;-73
2022/04/26 07:41:46;;;;;;;11.70;8.27;;;9.50;99.90;;;;;;5127670;27;20031;-73
2022/04/26 07:44:12;;;;;;;11.63;7.77;;;9.70;99.90;;;;;;5120092;27;20035;-73
2022/04/26 07:46:38;;;;;;;13.33;9.17;;;;;;;;;;5131442;27;20025;-70
2022/04/26 07:49:07;;;;;;;14.10;8.37;;;9.60;99.90;;;;;;5113094;27;20114;-71
2022/04/26 07:51:33;;;;;;;11.37;7.37;;;;;;;;;;5112136;27;20030;-71
2022/04/26 07:53:59;;;;;;;10.30;7.30;;;9.60;99.90;;;;;;5120945;27;20114;-71
2022/04/26 07:56:27;;;;;;;12.53;8.53;;;9.90;99.90;;;;;;5131104;27;20448;-71
2022/04/26 07:58:53;;;;;;;13.47;8.20;;;;;;;;;;5115809;27;20024;-73
2022/04/26 08:01:18;;;;;;;12.33;6.90;;;9.50;99.90;;;;;;5111793;27;20027;-73
2022/04/26 08:03:44;;;;;;;16.43;9.53;;;9.60;99.90;;;;;;5116427;27;20340;-74
2022/04/26 08:06:09;;;;;;;13.73;7.57;;;9.50;99.90;;;;;;5130070;27;20383;-73
2022/04/26 08:08:35;;;;;;;11.47;8.57;;;9.70;99.90;;;;;;5118827;27;20462;-73
2022/04/26 08:11:01;;;;;;;11.50;7.57;;;9.70;99.90;;;;;;5125128;27;20015;-73
2022/04/26 08:13:27;;;;;;;11.87;7.73;;;;;;;;;;5130784;27;20031;-73
2022/04/26 08:15:53;;;;;;;13.80;8.27;;;9.80;99.90;;;;;;5119361;27;20031;-73
2022/04/26 08:18:19;;;;;;;11.10;8.70;;;9.80;99.90;;;;;;5127012;27;20042;-73
2022/04/26 08:20:45;;;;;;;11.83;7.20;;;9.90;99.90;;;;;;5131043;27;20380;-73
2022/04/26 08:23:11;;;;;;;8.20;6.33;;;;;;;;;;5122809;27;20032;-73
2022/04/26 08:28:21;;;;;;;7.60;6.78;;;;;;;;;;5130698;27;20394;-73
2022/04/26 08:30:47;;;;;;;10.27;6.50;;;10.00;99.90;;;;;;5131050;27;20027;-73
2022/04/26 08:33:13;;;;;;;5.70;4.63;;;10.20;99.90;;;;;;5117056;27;20032;-71
2022/04/26 08:35:39;;;;;;;7.53;4.87;;;10.10;99.90;;;;;;5110480;28;20042;-71
2022/04/26 08:38:04;;;;;;;8.13;4.23;;;10.30;99.90;;;;;;5115885;27;20082;-71
2022/04/26 08:40:31;;;;;;;6.57;3.83;;;10.80;99.90;;;;;;5110575;28;20069;-71
2022/04/26 08:42:59;;;;;;;9.20;3.80;;;10.90;99.90;;;;;;5110333;27;20108;-71
2022/04/26 08:45:24;;;;;;;7.67;3.50;;;11.20;99.90;;;;;;5117684;27;20035;-71
2022/04/26 08:53:22;;;;;;;5.13;3.77;;;11.70;99.90;;;;;;5116866;27;20091;-72
2022/04/26 08:55:53;;;;;;;6.23;3.90;;;11.90;99.90;;;;;;5118523;27;20031;-71
2022/04/26 08:58:20;;;;;;;5.30;3.60;;;11.80;97.80;;;;;;5128533;27;20114;-71
2022/04/26 09:01:06;;;;;;;7.63;4.10;;;11.90;99.90;;;;;;5120738;28;20027;-71
2022/04/26 09:03:40;;;;;;;3.13;2.80;;;11.90;99.90;;;;;;5120352;28;20023;-71
2022/04/26 09:06:12;;;;;;;6.50;3.55;;;12.00;96.10;;;;;;5128374;27;20466;-71
2022/04/26 09:08:39;;;;;;;9.47;4.37;;;12.30;99.90;;;;;;5122753;27;20059;-72
2022/04/26 09:11:20;;;;;;;6.88;3.42;;;12.30;99.90;;;;;;5109703;28;20034;-73
2022/04/26 09:13:46;;;;;;;6.28;3.63;;;12.40;96.00;;;;;;5123694;28;20032;-72
2022/04/26 09:16:17;;;;;;;4.30;3.13;;;12.40;99.90;;;;;;5129620;27;20031;-72
2022/04/26 09:19:08;;;;;;;8.30;3.95;;;12.30;99.90;;;;;;5130461;28;20027;-71
2022/04/26 09:21:34;;;;;;;7.55;4.20;;;12.30;99.90;;;;;;5123440;27;20396;-72
2022/04/26 09:24:02;;;;;;;7.85;3.80;;;11.90;98.90;;;;;;5115835;28;20028;-71
2022/04/26 09:26:37;;;;;;;5.45;3.97;;;12.50;98.50;;;;;;5110364;28;20035;-74
2022/04/26 09:29:04;;;;;;;8.45;3.00;;;12.40;98.30;;;;;;5119625;28;20035;-74
2022/04/26 09:31:33;;;;;;;6.63;3.70;;;12.60;97.70;;;;;;5120664;27;20093;-73
2022/04/26 09:34:09;;;;;;;6.47;4.18;;;12.80;90.60;;;;;;5120608;28;20015;-73
2022/04/26 09:36:44;;;;;;;4.88;3.75;;;12.70;92.90;;;;;;5121190;27;20035;-73
2022/04/26 09:39:10;;;;;;;8.10;3.60;;;12.90;92.50;;;;;;5112337;27;20023;-70
2022/04/26 09:41:37;;;;;;;4.55;3.35;;;12.90;96.10;;;;;;5119415;27;20463;-71
2022/04/26 09:44:07;;;;;;;6.10;3.38;;;13.00;95.70;;;;;;5134644;27;20104;-70
2022/04/26 09:46:50;;;;;;;4.72;3.17;;;13.00;87.40;;;;;;5134272;27;20046;-71
2022/04/26 09:49:21;;;;;;;5.50;3.10;;;13.20;89.90;;;;;;5132720;27;20069;-71
2022/04/26 09:51:48;;;;;;;6.38;2.40;;;13.40;88.80;;;;;;5133342;27;20019;-71
2022/04/26 09:54:14;;;;;;;6.82;3.53;;;;;;;;;;5133847;27;20094;-70
2022/04/26 09:56:40;;;;;;;4.78;3.10;;;13.50;96.00;;;;;;5130728;27;20077;-71
2022/04/26 09:59:05;;;;;;;5.22;2.78;;;13.20;91.30;;;;;;5133604;27;20023;-71
2022/04/26 10:01:38;;;;;;;4.10;2.13;;;13.80;96.50;;;;;;5133871;27;20038;-73
2022/04/26 10:04:06;;;;;;;5.63;2.58;;;13.70;96.40;;;;;;5133868;27;20035;-71
2022/04/26 10:06:40;;;;;;;5.03;2.78;;;13.70;96.60;;;;;;5134584;27;20661;-71
2022/04/26 10:09:08;;;;;;;4.55;2.72;;;13.50;96.00;;;;;;5132292;27;20387;-71
2022/04/26 10:11:34;;;;;;;6.20;3.05;;;;;;;;;;5115856;27;20058;-71
2022/04/26 10:14:05;;;;;;;4.28;2.83;;;13.70;96.80;;;;;;5114819;27;20628;-71
2022/04/26 10:16:32;;;;;;;7.78;2.92;;;13.70;96.70;;;;;;5133138;27;20038;-71
2022/04/26 10:19:03;;;;;;;8.00;3.22;;;13.80;96.70;;;;;;5132507;27;20027;-71
2022/04/26 10:21:29;;;;;;;3.92;2.58;;;13.70;96.80;;;;;;5133574;27;20046;-71
2022/04/26 10:23:55;;;;;;;8.50;3.38;;;14.10;94.10;;;;;;5129100;27;20468;-71
2022/04/26 10:26:22;;;;;;;3.60;2.60;;;14.10;96.80;;;;;;5120704;27;20028;-71
2022/04/26 10:28:50;;;;;;;5.93;3.05;;;14.00;96.10;;;;;;5112549;28;20028;-71
2022/04/26 10:31:20;;;;;;;9.43;3.83;;;;;;;;;;5115809;27;20027;-70
2022/04/26 10:33:46;;;;;;;5.10;3.17;;;14.30;95.60;;;;;;5133730;27;20079;-71
2022/04/26 10:36:31;;;;;;;6.10;3.30;;;14.20;95.50;;;;;;5129123;27;20046;-71
2022/04/26 10:39:05;;;;;;;6.55;3.53;;;14.50;95.30;;;;;;5125886;27;20374;-71
2022/04/26 10:41:39;;;;;;;4.93;3.63;;;14.70;84.20;;;;;;5127286;27;20068;-71
2022/04/26 10:44:14;;;;;;;5.13;2.97;;;14.90;95.00;;;;;;5125152;27;20485;-71
2022/04/26 10:46:44;;;;;;;4.93;2.80;;;15.00;94.40;;;;;;5130531;27;20379;-71
2022/04/26 10:49:25;;;;;;;4.15;2.70;;;15.70;82.50;;;;;;5132674;27;20049;-73
2022/04/26 10:51:55;;;;;;;6.20;3.08;;;14.40;94.30;;;;;;5132903;27;20498;-72
2022/04/26 10:54:48;;;;;;;8.07;2.97;;;14.90;94.30;;;;;;5118442;27;20088;-72
2022/04/26 10:57:18;;;;;;;3.50;2.60;;;14.80;93.90;;;;;;5112063;28;20134;-76
2022/04/26 10:59:46;;;;;;;3.03;2.55;;;14.90;82.80;;;;;;5112153;27;20031;-72
2022/04/26 11:02:13;;;;;;;4.97;2.22;;;14.80;93.80;;;;;;5111965;28;20032;-72
2022/04/26 11:04:39;;;;;;;5.38;2.72;;;;;;;;;;5120610;27;20019;-72
2022/04/26 11:07:12;;;;;;;5.47;3.40;;;15.20;93.70;;;;;;5129257;27;20360;-72
2022/04/26 11:09:47;;;;;;;6.28;2.70;;;15.30;93.60;;;;;;5113977;27;20032;-72
2022/04/26 11:12:14;;;;;;;5.50;2.80;;;15.10;92.90;;;;;;5112044;28;20058;-72
2022/04/26 11:14:40;;;;;;;3.58;2.38;;;15.00;93.00;;;;;;5112230;28;20038;-75
2022/04/26 11:17:06;;;;;;;2.97;2.45;;;15.10;93.40;;;;;;5111430;28;20070;-72
2022/04/26 11:19:36;;;;;;;2.55;2.00;;;15.30;93.30;;;;;;5110711;28;20541;-74
2022/04/26 11:22:05;;;;;;;2.38;1.98;;;15.50;93.00;;;;;;5112084;27;20031;-72
2022/04/26 11:30:00;;;;;;;3.10;2.42;;;15.50;92.10;;;;;;5131117;27;20049;-72
2022/04/26 11:32:30;;;;;;;3.67;2.22;;;15.70;92.20;;;;;;5131440;27;20463;-72
2022/04/26 11:34:56;;;;;;;3.83;2.08;;;15.60;92.20;;;;;;5130862;27;20031;-72
2022/04/26 11:37:22;;;;;;;4.90;2.88;;;15.30;92.10;;;;;;5127996;27;20421;-72
2022/04/26 11:39:48;;;;;;;4.03;2.58;;;15.60;92.30;;;;;;5131221;27;20076;-71
2022/04/26 11:42:14;;;;;;;5.60;3.55;;;15.60;92.70;;;;;;5129873;27;20080;-71
2022/04/26 11:45:03;;;;;;;5.82;3.97;;;15.60;92.50;;;;;;5131626;27;20483;-71
2022/04/26 11:47:38;;;;;;;5.03;3.80;;;15.20;92.60;;;;;;5131345;27;20027;-71
2022/04/26 11:50:12;;;;;;;6.47;3.65;;;15.20;92.70;;;;;;5117696;27;20023;-74
2022/04/26 11:52:38;;;;;;;5.22;3.95;;;15.20;92.60;;;;;;5123866;27;20030;-70
2022/04/26 11:55:05;;;;;;;5.35;3.20;;;15.40;92.60;;;;;;5126310;27;20019;-72
2022/04/26 11:57:31;;;;;;;6.90;3.60;;;15.50;92.20;;;;;;5131700;27;20055;-72
2022/04/26 11:59:58;;;;;;;3.17;2.47;;;;;;;;;;5116506;27;20037;-72
2022/04/26 12:02:24;;;;;;;4.88;3.33;;;15.50;92.10;;;;;;5111116;28;20024;-71
2022/04/26 12:04:50;;;;;;;4.47;2.60;;;15.70;91.80;;;;;;5119411;27;20104;-72
2022/04/26 12:07:17;;;;;;;4.25;2.53;;;15.60;91.70;;;;;;5131665;27;20030;-72
2022/04/26 12:09:43;;;;;;;6.18;3.28;;;;;;;;;;5131409;27;20027;-72
2022/04/26 12:12:10;;;;;;;5.63;3.03;;;15.70;91.50;;;;;;5130818;27;20435;-71
2022/04/26 12:14:40;;;;;;;4.75;2.85;;;15.80;91.60;;;;;;5131471;27;20019;-72
2022/04/26 12:17:16;;;;;;;3.53;3.15;;;15.50;91.40;;;;;;5130917;27;20046;-72
2022/04/26 12:19:41;;;;;;;4.60;3.38;;;15.50;91.00;;;;;;5130435;27;20026;-72
2022/04/26 12:22:07;;;;;;;3.70;2.47;;;15.20;83.40;;;;;;5130573;27;20031;-71
2022/04/26 12:24:51;;;;;;;3.88;2.25;;;15.50;91.20;;;;;;5130935;27;20023;-72
2022/04/26 12:27:25;;;;;;;3.58;2.30;;;15.70;91.30;;;;;;5108961;28;20399;-72
2022/04/26 12:29:51;;;;;;;5.78;2.80;;;15.60;90.90;;;;;;5112029;27;20032;-72
2022/04/26 12:32:23;;;;;;;4.70;2.45;;;15.70;90.80;;;;;;5114681;27;20026;-71
2022/04/26 12:34:54;;;;;;;5.15;2.97;;;16.00;90.60;;;;;;5110732;28;20034;-72
2022/04/26 12:37:25;;;;;;;5.95;2.45;;;16.20;90.80;;;;;;5110531;28;20036;-71
2022/04/26 12:40:00;;;;;;;3.40;2.63;;;16.30;90.60;;;;;;5119738;27;20031;-71
2022/04/26 12:42:29;;;;;;;6.97;2.58;;;16.20;90.60;;;;;;5130620;27;20035;-71
2022/04/26 12:45:01;;;;;;;5.72;2.55;;;16.20;90.70;;;;;;5121155;27;20023;-71
2022/04/26 12:53:07;;;;;;;4.97;2.63;;;16.00;90.70;;;;;;5121894;27;20059;-71
2022/04/26 12:55:41;;;;;;;3.60;2.20;;;16.00;90.70;;;;;;5110963;28;20448;-71
2022/04/26 12:58:08;;;;;;;4.82;2.67;;;16.20;90.30;;;;;;5129286;27;20035;-71
2022/04/26 13:00:40;;;;;;;5.85;2.78;;;16.10;76.00;;;;;;5129578;28;20475;-71
2022/04/26 13:03:07;;;;;;;4.05;2.30;;;16.30;89.50;;;;;;5130930;27;20023;-72
2022/04/26 13:05:41;;;;;;;4.28;2.90;;;16.30;89.10;;;;;;5131165;28;20124;-71
2022/04/26 13:08:08;;;;;;;4.93;2.85;;;16.10;89.50;;;;;;5125348;27;20174;-71
2022/04/26 13:10:34;;;;;;;5.40;1.80;;;15.60;90.00;;;;;;5127571;28;20070;-71
2022/04/26 13:12:59;;;;;;;5.70;2.22;;;15.70;89.80;;;;;;5110887;28;20051;-71
2022/04/26 13:15:27;;;;;;;4.68;2.90;;;15.90;89.80;;;;;;5125446;27;20027;-72
2022/04/26 13:17:53;;;;;;;3.47;1.92;;;15.70;90.00;;;;;;5134816;27;20038;-72
2022/04/26 13:20:19;;;;;;;5.00;2.53;;;15.70;89.50;;;;;;5132708;27;20026;-71
2022/04/26 13:22:45;;;;;;;3.17;2.33;;;15.90;90.00;;;;;;5113712;28;20032;-72
2022/04/26 13:25:11;;;;;;;2.35;2.00;;;;;;;;;;5113941;27;20034;-71
2022/04/26 13:27:38;;;;;;;3.00;2.20;;;15.90;90.00;;;;;;5113620;28;20012;-71
2022/04/26 13:30:05;;;;;;;2.95;2.28;;;16.10;89.40;;;;;;5112129;28;20024;-71
2022/04/26 13:32:31;;;;;;;3.90;2.13;;;15.50;89.10;;;;;;5114028;28;20034;-72
2022/04/26 13:34:58;;;;;;;3.90;1.90;;;15.80;88.80;;;;;;5113402;27;20035;-71
2022/04/26 13:37:24;;;;;;;5.13;2.47;;;16.20;74.30;;;;;;5113193;28;20042;-71
2022/04/26 13:39:50;;;;;;;2.95;2.13;;;15.50;89.00;;;;;;5113737;28;20019;-72
2022/04/26 13:42:16;;;;;;;2.85;2.20;;;15.60;88.80;;;;;;5113494;27;20122;-72
2022/04/26 13:44:42;;;;;;;5.35;2.10;;;15.90;87.70;;;;;;5113390;28;20034;-71
2022/04/26 13:47:08;;;;;;;3.35;2.33;;;15.80;87.30;;;;;;5113064;28;20107;-71
2022/04/26 13:49:35;;;;;;;2.25;1.90;;;15.80;87.20;;;;;;5113372;28;20019;-71
2022/04/26 13:52:01;;;;;;;3.58;2.58;;;15.90;87.60;;;;;;5112140;28;20049;-71
2022/04/26 13:54:27;;;;;;;6.20;1.83;;;15.80;87.50;;;;;;5113555;28;20239;-72
2022/04/26 13:56:54;;;;;;;2.80;1.63;;;16.00;87.70;;;;;;5126517;27;20134;-72
2022/04/26 13:59:20;;;;;;;5.32;1.63;;;16.00;87.00;;;;;;5133920;27;20413;-72
2022/04/26 14:01:45;;;;;;;4.15;2.25;;;16.40;86.90;;;;;;5117184;27;20046;-71
2022/04/26 14:04:11;;;;;;;5.15;2.42;;;16.30;87.00;;;;;;5111766;28;20471;-72
2022/04/26 14:06:36;;;;;;;5.63;2.38;;;16.10;87.10;;;;;;5113289;28;20032;-71
2022/04/26 14:09:02;;;;;;;2.65;2.42;;;15.90;87.00;;;;;;5113056;28;20433;-71
2022/04/26 14:11:28;;;;;;;3.78;2.45;;;15.80;86.70;;;;;;5113586;28;20028;-71
2022/04/26 14:22:05;;;;;;;;;;;15.90;71.40;;;;;;5112817;28;20039;-71
2022/04/26 14:24:31;;;;;;;5.75;2.40;;;16.20;89.00;;;;;;5111042;28;19907;-71
2022/04/26 14:26:57;;;;;;;5.18;2.22;;;16.20;88.80;;;;;;5123400;27;20372;-71
2022/04/26 14:29:23;;;;;;;3.83;2.45;;;16.30;87.50;;;;;;5134575;27;20029;-71
2022/04/26 14:31:50;;;;;;;3.22;2.15;;;15.70;87.30;;;;;;5134097;27;20476;-71
2022/04/26 14:34:15;;;;;;;6.35;2.47;;;15.70;87.50;;;;;;5124378;27;20027;-71
2022/04/26 14:36:41;;;;;;;3.67;2.25;;;15.90;86.90;;;;;;5117166;27;20027;-71
2022/04/26 14:39:07;;;;;;;5.55;2.90;;;16.20;87.20;;;;;;5132657;27;20080;-71
2022/04/26 14:41:32;;;;;;;3.55;2.50;;;16.30;87.50;;;;;;5131699;27;20042;-72
2022/04/26 14:43:58;;;;;;;3.70;2.00;;;16.30;87.80;;;;;;5132912;27;20035;-72
2022/04/26 14:46:23;;;;;;;3.58;2.35;;;16.10;88.30;;;;;;5133025;27;20031;-72
2022/04/26 14:48:49;;;;;;;2.80;2.30;;;16.20;88.30;;;;;;5113510;27;20027;-72
2022/04/26 14:51:15;;;;;;;5.43;2.85;;;;;;;;;;5132417;27;20028;-72
2022/04/26 14:53:40;;;;;;;4.22;2.88;;;16.40;87.90;;;;;;5133553;27;20027;-72
2022/04/26 14:56:07;;;;;;;3.42;2.60;;;16.50;87.80;;;;;;5128388;27;20047;-73
2022/04/26 14:58:34;;;;;;;3.60;2.58;;;16.20;88.50;;;;;;5132727;27;20039;-76
2022/04/26 15:01:00;;;;;;;3.58;2.38;;;16.60;88.60;;;;;;5132500;27;20030;-71
2022/04/26 15:03:26;;;;;;;3.63;2.58;;;16.60;73.60;;;;;;5132714;27;20027;-71
2022/04/26 15:05:52;;;;;;;3.47;2.28;;;16.50;88.60;;;;;;5129436;27;20460;-71
2022/04/26 15:11:21;;;;;;;4.30;2.33;;;16.20;90.10;;;;;;5088891;28;20020;-71
2022/04/26 15:16:37;;;;;;;5.57;3.13;;;;;;;;;;5089115;28;20113;-71
2022/04/26 15:19:03;;;;;;;3.33;2.33;;;15.90;90.10;;;;;;5088022;28;20085;-71
2022/04/26 15:21:29;;;;;;;4.13;2.60;;;15.80;90.00;;;;;;5089322;28;20047;-71
2022/04/26 15:23:55;;;;;;;5.80;2.78;;;16.10;90.40;;;;;;5089325;28;20032;-71
2022/04/26 15:26:22;;;;;;;2.47;1.73;;;16.60;90.20;;;;;;5088248;28;20526;-71
2022/04/26 15:28:47;;;;;;;4.35;1.90;;;17.50;89.20;;;;;;5087706;28;20052;-71
2022/04/26 15:31:18;;;;;;;6.15;2.78;;;18.10;86.90;;;;;;5088144;28;20028;-72
2022/04/26 15:33:44;;;;;;;3.08;1.90;;;18.00;70.60;;;;;;5088261;28;20043;-71
2022/04/26 15:36:10;;;;;;;3.15;2.30;;;18.40;71.00;;;;;;5070835;28;20076;-71
2022/04/26 15:38:36;;;;;;;4.28;2.47;;;18.70;69.80;;;;;;5089258;28;20063;-72
2022/04/26 15:41:05;;;;;;;4.35;2.33;;;18.40;69.40;;;;;;5088914;28;20151;-71
2022/04/26 15:43:31;;;;;;;3.17;2.03;;;18.10;69.50;;;;;;5128763;27;20015;-71
2022/04/26 15:45:57;;;;;;;3.17;2.40;;;18.40;69.70;;;;;;5131202;27;20075;-73
2022/04/26 15:48:24;;;;;;;3.83;2.58;;;18.90;83.20;;;;;;5130615;27;20028;-73
2022/04/26 15:50:50;;;;;;;9.07;2.50;;;18.90;67.70;;;;;;5131967;27;20402;-72
2022/04/26 15:53:15;;;;;;;3.67;2.00;;;19.00;67.50;;;;;;5131837;27;20027;-72
2022/04/26 15:55:41;;;;;;;3.13;1.65;;;19.20;67.30;;;;;;5131977;27;20093;-73
2022/04/26 15:58:08;;;;;;;3.10;2.13;;;19.10;67.10;;;;;;5130559;27;20039;-72
2022/04/26 16:00:34;;;;;;;2.67;2.03;;;19.30;67.10;;;;;;5110322;28;20201;-72
2022/04/26 16:03:01;;;;;;;3.80;1.83;;;19.90;66.90;;;;;;5110662;28;20038;-72
2022/04/26 16:05:27;;;;;;;5.57;2.80;;;19.40;66.10;;;;;;5110115;28;20020;-72
2022/04/26 16:07:52;;;;;;;3.00;2.30;;;18.70;65.90;;;;;;5112814;27;20042;-72
2022/04/26 16:21:14;;;;;;;;;;;15.90;71.10;;;;;;5132378;27;20030;-72
2022/04/26 16:23:40;;;;;;;4.05;2.10;;;15.50;88.00;;;;;;5131914;27;19903;-72
2022/04/26 16:26:07;;;;;;;4.18;1.98;;;15.40;88.20;;;;;;5131127;27;20019;-72
2022/04/26 16:28:34;;;;;;;2.72;2.17;;;15.40;88.40;;;;;;5131520;27;20083;-73
2022/04/26 16:31:00;;;;;;;4.30;1.67;;;15.30;88.60;;;;;;5130571;27;20030;-71
2022/04/26 16:33:26;;;;;;;4.43;2.15;;;15.30;89.00;;;;;;5131579;27;20094;-71
2022/04/26 16:35:52;;;;;;;3.20;1.70;;;;;;;;;;5131149;27;20489;-71
2022/04/26 16:38:18;;;;;;;2.83;1.88;;;14.70;88.10;;;;;;5130816;27;20043;-71
2022/04/26 16:40:45;;;;;;;3.35;1.80;;;14.90;88.50;;;;;;5131365;27;20495;-71
2022/04/26 16:43:11;;;;;;;2.15;1.20;;;14.80;88.80;;;;;;5128536;27;20035;-71
2022/04/26 16:45:37;;;;;;;2.65;2.03;;;;;;;;;;5121227;27;20030;-71
2022/04/26 16:48:03;;;;;;;3.55;2.05;;;14.80;88.90;;;;;;5117034;27;20035;-71
2022/04/26 16:50:29;;;;;;;2.50;1.80;;;14.90;88.80;;;;;;5112736;28;20036;-71
2022/04/26 16:52:54;;;;;;;2.72;1.52;;;15.00;88.90;;;;;;5130901;27;20454;-71
2022/04/26 16:55:21;;;;;;;2.92;2.30;;;14.70;88.90;;;;;;5131352;27;20035;-71
2022/04/26 17:41:40;;;;;;;2.53;1.00;;;;;;;;;;5104774;27;20703;-71
2022/04/26 17:44:06;;;;;;;3.00;1.73;;;14.40;90.80;;;;;;5087838;28;20472;-71
2022/04/26 17:46:32;;;;;;;3.25;1.52;;;14.20;84.80;;;;;;5087764;28;20085;-71
2022/04/26 17:48:57;;;;;;;1.75;1.45;;;13.90;90.70;;;;;;5087066;28;20024;-71
2022/04/26 17:51:23;;;;;;;1.88;1.40;;;13.80;90.70;;;;;;5086714;28;20032;-72
2022/04/26 17:56:34;;;;;;;;;;;13.50;74.70;;;;;;5087250;28;20280;-71
2022/04/26 17:59:02;;;;;;;2.85;1.88;;;13.30;90.80;;;;;;5084649;28;19999;-71
2022/04/26 18:01:27;;;;;;;2.95;1.70;;;13.20;90.90;;;;;;5088114;28;20039;-71
2022/04/26 18:03:53;;;;;;;4.22;1.45;;;13.00;78.00;;;;;;5086734;28;20032;-73
2022/04/26 18:06:19;;;;;;;2.05;1.23;;;;;;;;;;5085273;28;20085;-72
2022/04/26 18:08:45;;;;;;;3.35;1.73;;;;;;;;;;5086598;28;20050;-72
2022/04/26 18:11:11;;;;;;;2.25;1.83;;;12.50;77.80;;;;;;5086041;28;20111;-72
2022/04/26 18:13:38;;;;;;;4.68;2.30;;;12.80;80.90;;;;;;5085561;28;20111;-71